Time;durP1;ratioP1;P1;durP2;ratioP2;P2;SDS_P1;SDS_P2;PMS_P1;PMS_P2;Temp;Humidity;BMP_temperature;BMP_pressure;BME280_temperature;BME280_humidity;BME280_pressure;Samples;Min_cycle;Max_cycle;Signal;HPM_P1;HPM_P2
2022/01/18 00:01:47;;;;;;;;;;;;;;;;;;5073269;28;840;-82
2022/01/18 00:04:12;;;;;;;;;;;;;;;;;;5070811;28;1163;-82
2022/01/18 00:06:40;;;;;;;;;;;;;;;;;;5073281;28;916;-82
2022/01/18 00:09:06;;;;;;;;;;;;;;;;;;5072764;28;1902;-82
2022/01/18 00:11:39;;;;;;;;;;;;;;;;;;5054627;28;1289;-82
2022/01/18 00:14:12;;;;;;;;;;;;;;;;;;5071890;28;1604;-82
2022/01/18 00:16:49;;;;;;;;;;;;;;;;;;5072640;28;896;-82
2022/01/18 00:19:15;;;;;;;;;;;;;;;;;;5073036;28;836;-82
2022/01/18 00:24:15;;;;;;;;;;;;;;;;;;5071630;28;828;-82
2022/01/18 00:26:40;;;;;;;;;;;;;;;;;;5070963;28;876;-82
2022/01/18 00:29:09;;;;;;;;;;;;;;;;;;5071299;28;1933;-82
2022/01/18 00:31:51;;;;;;;;;;;;;;;;;;5070989;28;1167;-82
2022/01/18 00:37:33;;;;;;;;;;;;;;;;;;5072685;28;694;-83
2022/01/18 00:39:27;;;;;;;;;;;;;;;;;;5057751;28;1030;-82
2022/01/18 00:41:52;;;;;;;;;;;;;;;;;;5071444;28;1207;-82
2022/01/18 00:44:18;;;;;;;;;;;;;;;;;;5070346;28;1189;-82
2022/01/18 00:46:44;;;;;;;;;;;;;;;;;;5071114;28;1274;-82
2022/01/18 00:49:10;;;;;;;;;;;;;;;;;;5072463;28;1906;-82
2022/01/18 00:51:38;;;;;;;;;;;;;;;;;;5071746;28;838;-81
2022/01/18 00:54:04;;;;;;;;;;;;;;;;;;5070812;28;1304;-81
2022/01/18 00:56:31;;;;;;;;;;;;;;;;;;5071589;28;927;-81
2022/01/18 00:58:57;;;;;;;;;;;;;;;;;;5070854;28;1364;-81
2022/01/18 01:01:24;;;;;;;;;;;;;;;;;;5070993;28;821;-82
2022/01/18 01:03:51;;;;;;;;;;;;;;;;;;5070812;28;1019;-82
2022/01/18 01:06:17;;;;;;;;;;;;;;;;;;5070345;28;885;-82
2022/01/18 01:08:42;;;;;;;;;;;;;;;;;;5071405;28;1902;-81
2022/01/18 01:11:08;;;;;;;;;;;;;;;;;;5053747;28;1243;-82
2022/01/18 01:13:35;;;;;;;;;;;;;;;;;;5070455;28;1290;-82
2022/01/18 01:42:55;;;;;;;;;;;;;;;;;;5070765;28;1286;-77
2022/01/18 01:45:20;;;;;;;;;;;;;;;;;;5070112;28;1169;-82
2022/01/18 01:47:51;;;;;;;;;;;;;;;;;;5052635;28;2023;-82
2022/01/18 01:50:19;;;;;;;;;;;;;;;;;;5069598;28;1162;-82
2022/01/18 01:52:45;;;;;;;;;;;;;;;;;;5069758;28;1326;-82
2022/01/18 01:55:11;;;;;;;;;;;;;;;;;;5071343;28;777;-82
2022/01/18 01:57:36;;;;;;;;;;;;;;;;;;5069544;28;1261;-82
2022/01/18 02:00:06;;;;;;;;;;;;;;;;;;5070144;28;791;-81
2022/01/18 02:02:31;;;;;;;;;;;;;;;;;;5069626;28;1408;-77
2022/01/18 02:04:57;;;;;;;;;;;;;;;;;;5053097;28;1255;-77
2022/01/18 02:07:22;;;;;;;;;;;;;;;;;;5069956;28;1253;-77
2022/01/18 02:09:47;;;;;;;;;;;;;;;;;;5052701;28;1969;-77
2022/01/18 02:12:13;;;;;;;;;;;;;;;;;;5069240;28;1137;-77
2022/01/18 02:14:40;;;;;;;;;;;;;;;;;;5052599;28;1210;-77
2022/01/18 02:22:33;;;;;;;;;;;;;;;;;;5069787;28;639;-77
2022/01/18 02:24:59;;;;;;;;;;;;;;;;;;5069268;28;1148;-77
2022/01/18 02:27:24;;;;;;;;;;;;;;;;;;5070954;28;978;-76
2022/01/18 02:29:49;;;;;;;;;;;;;;;;;;5072947;28;1965;-77
2022/01/18 02:32:14;;;;;;;;;;;;;;;;;;5073120;28;1163;-77
2022/01/18 02:34:40;;;;;;;;;;;;;;;;;;5072607;28;1133;-77
2022/01/18 02:37:05;;;;;;;;;;;;;;;;;;5074371;28;1216;-77
2022/01/18 02:39:30;;;;;;;;;;;;;;;;;;5072680;28;1198;-78
2022/01/18 02:42:00;;;;;;;;;;;;;;;;;;5072846;28;900;-77
2022/01/18 02:44:27;;;;;;;;;;;;;;;;;;5072141;28;1213;-77
2022/01/18 02:46:52;;;;;;;;;;;;;;;;;;5072557;28;1119;-78
2022/01/18 02:49:18;;;;;;;;;;;;;;;;;;5072454;28;1909;-77
2022/01/18 02:51:43;;;;;;;;;;;;;;;;;;5072533;28;1219;-77
2022/01/18 02:54:10;;;;;;;;;;;;;;;;;;5074132;28;785;-77
2022/01/18 02:56:46;;;;;;;;;;;;;;;;;;5073961;28;895;-77
2022/01/18 02:59:21;;;;;;;;;;;;;;;;;;5074499;28;892;-78
2022/01/18 03:04:37;;;;;;;;;;;;;;;;;;5073292;28;829;-77
2022/01/18 03:07:03;;;;;;;;;;;;;;;;;;5074390;28;841;-78
2022/01/18 03:09:28;;;;;;;;;;;;;;;;;;5072124;28;1960;-77
2022/01/18 03:11:53;;;;;;;;;;;;;;;;;;5072202;28;1242;-78
2022/01/18 03:14:19;;;;;;;;;;;;;;;;;;5074388;28;828;-77
2022/01/18 03:16:44;;;;;;;;;;;;;;;;;;5072730;28;968;-77
2022/01/18 03:19:10;;;;;;;;;;;;;;;;;;5073879;28;909;-77
2022/01/18 03:21:36;;;;;;;;;;;;;;;;;;5055642;28;1452;-77
2022/01/18 03:29:43;;;;;;;;;;;;;;;;;;5073438;28;1916;-77
2022/01/18 03:32:08;;;;;;;;;;;;;;;;;;5071959;28;1282;-77
2022/01/18 03:34:34;;;;;;;;;;;;;;;;;;5073107;28;987;-77
2022/01/18 03:36:59;;;;;;;;;;;;;;;;;;5071887;28;1139;-77
2022/01/18 03:39:24;;;;;;;;;;;;;;;;;;5071955;28;1206;-77
2022/01/18 03:41:55;;;;;;;;;;;;;;;;;;5071699;28;885;-77
2022/01/18 03:44:22;;;;;;;;;;;;;;;;;;5071907;28;1339;-77
2022/01/18 03:46:49;;;;;;;;;;;;;;;;;;5073321;28;915;-77
2022/01/18 03:49:14;;;;;;;;;;;;;;;;;;5071772;28;1901;-77
2022/01/18 03:51:40;;;;;;;;;;;;;;;;;;5071713;28;1276;-77
2022/01/18 03:54:05;;;;;;;;;;;;;;;;;;5055271;28;1128;-81
2022/01/18 03:56:30;;;;;;;;;;;;;;;;;;5073343;28;892;-80
2022/01/18 03:58:55;;;;;;;;;;;;;;;;;;5072593;28;912;-77
2022/01/18 04:01:21;;;;;;;;;;;;;;;;;;5072039;28;893;-77
2022/01/18 04:03:47;;;;;;;;;;;;;;;;;;5071921;28;813;-77
2022/01/18 04:06:12;;;;;;;;;;;;;;;;;;5072748;28;1277;-77
2022/01/18 04:08:37;;;;;;;;;;;;;;;;;;5071231;28;1913;-77
2022/01/18 04:11:03;;;;;;;;;;;;;;;;;;5073559;28;1266;-77
2022/01/18 04:13:28;;;;;;;;;;;;;;;;;;5071825;28;1067;-76
2022/01/18 04:15:53;;;;;;;;;;;;;;;;;;5072228;28;916;-77
2022/01/18 04:28:43;;;;;;;;;;;;;;;;;;5073180;28;1975;-77
2022/01/18 04:31:08;;;;;;;;;;;;;;;;;;5076786;28;1353;-77
2022/01/18 04:33:35;;;;;;;;;;;;;;;;;;5077366;28;1314;-78
2022/01/18 04:36:00;;;;;;;;;;;;;;;;;;5079650;28;1085;-77
2022/01/18 04:38:26;;;;;;;;;;;;;;;;;;5078042;28;1396;-77
2022/01/18 04:40:51;;;;;;;;;;;;;;;;;;5079191;28;1046;-78
2022/01/18 04:48:32;;;;;;;;;;;;;;;;;;5078724;28;1890;-78
2022/01/18 04:50:59;;;;;;;;;;;;;;;;;;5077238;28;1170;-77
2022/01/18 04:53:26;;;;;;;;;;;;;;;;;;5078254;28;848;-78
2022/01/18 04:55:55;;;;;;;;;;;;;;;;;;5077230;28;1180;-77
2022/01/18 04:58:21;;;;;;;;;;;;;;;;;;5076798;28;876;-77
2022/01/18 05:00:48;;;;;;;;;;;;;;;;;;5076858;28;758;-77
2022/01/18 05:03:13;;;;;;;;;;;;;;;;;;5077026;28;908;-78
2022/01/18 05:05:39;;;;;;;;;;;;;;;;;;5076512;28;1023;-78
2022/01/18 05:08:06;;;;;;;;;;;;;;;;;;5059259;28;1895;-78
2022/01/18 05:10:32;;;;;;;;;;;;;;;;;;5076377;28;873;-77
2022/01/18 05:12:58;;;;;;;;;;;;;;;;;;5075555;28;1186;-77
2022/01/18 05:23:07;;;;;;;;;;;;;;;;;;5078737;28;797;-78
2022/01/18 05:25:32;;;;;;;;;;;;;;;;;;5072482;28;1189;-78
2022/01/18 05:27:59;;;;;;;;;;;;;;;;;;5074920;28;1882;-78
2022/01/18 05:30:25;;;;;;;;;;;;;;;;;;5074475;28;896;-78
2022/01/18 05:32:50;;;;;;;;;;;;;;;;;;5072729;28;1219;-77
2022/01/18 05:35:15;;;;;;;;;;;;;;;;;;5071435;28;1193;-78
2022/01/18 05:37:41;;;;;;;;;;;;;;;;;;5072368;28;883;-78
2022/01/18 05:40:06;;;;;;;;;;;;;;;;;;5071066;28;1291;-78
2022/01/18 05:42:32;;;;;;;;;;;;;;;;;;5070288;28;1125;-78
2022/01/18 05:44:58;;;;;;;;;;;;;;;;;;5071048;28;1326;-77
2022/01/18 05:47:24;;;;;;;;;;;;;;;;;;5071205;28;919;-78
2022/01/18 05:49:50;;;;;;;;;;;;;;;;;;5070920;28;1909;-77
2022/01/18 05:52:15;;;;;;;;;;;;;;;;;;5070591;28;1301;-77
2022/01/18 05:54:40;;;;;;;;;;;;;;;;;;5070378;28;1236;-78
2022/01/18 05:57:06;;;;;;;;;;;;;;;;;;5070444;28;1200;-78
2022/01/18 05:59:36;;;;;;;;;;;;;;;;;;5071358;28;1220;-78
2022/01/18 06:02:13;;;;;;;;;;;;;;;;;;5054889;28;1327;-78
2022/01/18 06:07:22;;;;;;;;;;;;;;;;;;5076887;28;831;-78
2022/01/18 06:09:48;;;;;;;;;;;;;;;;;;5075008;28;1979;-78
2022/01/18 06:12:13;;;;;;;;;;;;;;;;;;5057820;28;1155;-77
2022/01/18 06:14:38;;;;;;;;;;;;;;;;;;5073661;28;1183;-78
2022/01/18 06:17:03;;;;;;;;;;;;;;;;;;5073742;28;1169;-76
2022/01/18 06:19:29;;;;;;;;;;;;;;;;;;5073367;28;1254;-78
2022/01/18 06:21:54;;;;;;;;;;;;;;;;;;5073913;28;1202;-77
2022/01/18 06:24:19;;;;;;;;;;;;;;;;;;5057137;28;1198;-77
2022/01/18 06:26:45;;;;;;;;;;;;;;;;;;5073958;28;856;-77
2022/01/18 06:29:10;;;;;;;;;;;;;;;;;;5073849;28;1973;-78
2022/01/18 06:31:35;;;;;;;;;;;;;;;;;;5073546;28;973;-77
2022/01/18 06:34:00;;;;;;;;;;;;;;;;;;5073014;28;927;-78
2022/01/18 06:36:26;;;;;;;;;;;;;;;;;;5073126;28;793;-77
2022/01/18 06:38:51;;;;;;;;;;;;;;;;;;5073876;28;1264;-77
2022/01/18 06:41:16;;;;;;;;;;;;;;;;;;5074639;28;825;-78
2022/01/18 06:43:42;;;;;;;;;;;;;;;;;;5056287;28;1261;-77
2022/01/18 06:46:07;;;;;;;;;;;;;;;;;;5056136;28;1198;-78
2022/01/18 06:48:32;;;;;;;;;;;;;;;;;;5073900;28;1886;-78
2022/01/18 06:50:58;;;;;;;;;;;;;;;;;;5073722;28;1172;-78
2022/01/18 06:53:23;;;;;;;;;;;;;;;;;;5056739;28;1254;-77
2022/01/18 06:55:52;;;;;;;;;;;;;;;;;;5073555;28;920;-78
2022/01/18 06:58:18;;;;;;;;;;;;;;;;;;5074737;28;997;-78
2022/01/18 07:00:43;;;;;;;;;;;;;;;;;;5074719;28;738;-78
2022/01/18 07:03:08;;;;;;;;;;;;;;;;;;5073054;28;1234;-77
2022/01/18 07:05:33;;;;;;;;;;;;;;;;;;5073122;28;1161;-78
2022/01/18 07:07:59;;;;;;;;;;;;;;;;;;5074683;28;1879;-77
2022/01/18 07:10:25;;;;;;;;;;;;;;;;;;5072566;28;1201;-77
2022/01/18 07:12:50;;;;;;;;;;;;;;;;;;5072694;28;1334;-77
2022/01/18 07:15:15;;;;;;;;;;;;;;;;;;5055752;28;1226;-78
2022/01/18 07:17:41;;;;;;;;;;;;;;;;;;5072625;28;1108;-78
2022/01/18 07:20:06;;;;;;;;;;;;;;;;;;5072029;28;1403;-78
2022/01/18 07:22:32;;;;;;;;;;;;;;;;;;5073784;28;841;-78
2022/01/18 07:24:59;;;;;;;;;;;;;;;;;;5072112;28;1234;-79
2022/01/18 07:27:24;;;;;;;;;;;;;;;;;;5072526;28;1326;-79
2022/01/18 07:29:50;;;;;;;;;;;;;;;;;;5073898;28;1977;-79
2022/01/18 07:32:15;;;;;;;;;;;;;;;;;;5073894;28;1026;-77
2022/01/18 07:34:49;;;;;;;;;;;;;;;;;;5071717;28;825;-77
2022/01/18 07:37:14;;;;;;;;;;;;;;;;;;5071062;28;1443;-77
2022/01/18 07:39:41;;;;;;;;;;;;;;;;;;5071710;28;1194;-77
2022/01/18 07:42:06;;;;;;;;;;;;;;;;;;5073345;28;886;-77
2022/01/18 07:44:32;;;;;;;;;;;;;;;;;;5054667;28;1240;-77
2022/01/18 07:46:57;;;;;;;;;;;;;;;;;;5071652;28;1194;-77
2022/01/18 07:49:24;;;;;;;;;;;;;;;;;;5072078;28;1891;-77
2022/01/18 07:51:50;;;;;;;;;;;;;;;;;;5073717;28;1416;-77
2022/01/18 07:54:16;;;;;;;;;;;;;;;;;;5085209;28;774;-77
2022/01/18 07:56:41;;;;;;;;;;;;;;;;;;5078815;28;1226;-77
2022/01/18 07:59:07;;;;;;;;;;;;;;;;;;5054869;28;1193;-77
2022/01/18 08:01:32;;;;;;;;;;;;;;;;;;5071313;28;1234;-77
2022/01/18 08:03:58;;;;;;;;;;;;;;;;;;5055315;28;1308;-77
2022/01/18 08:06:24;;;;;;;;;;;;;;;;;;5071702;28;979;-78
2022/01/18 08:08:49;;;;;;;;;;;;;;;;;;5072281;28;1971;-77
2022/01/18 08:11:15;;;;;;;;;;;;;;;;;;5054520;28;1335;-77
2022/01/18 08:13:44;;;;;;;;;;;;;;;;;;5072564;28;958;-77
2022/01/18 08:18:53;;;;;;;;;;;;;;;;;;5072297;28;686;-77
2022/01/18 08:21:19;;;;;;;;;;;;;;;;;;5071522;28;944;-79
2022/01/18 08:23:44;;;;;;;;;;;;;;;;;;5071183;28;943;-78
2022/01/18 08:26:09;;;;;;;;;;;;;;;;;;5071841;28;797;-79
2022/01/18 08:28:35;;;;;;;;;;;;;;;;;;5054771;28;1918;-79
2022/01/18 08:31:00;;;;;;;;;;;;;;;;;;5071295;28;1069;-78
2022/01/18 08:33:25;;;;;;;;;;;;;;;;;;5054292;28;1264;-79
2022/01/18 08:35:51;;;;;;;;;;;;;;;;;;5071825;28;1331;-78
2022/01/18 08:38:16;;;;;;;;;;;;;;;;;;5071326;28;1130;-78
2022/01/18 08:40:41;;;;;;;;;;;;;;;;;;5072625;28;863;-79
2022/01/18 08:43:07;;;;;;;;;;;;;;;;;;5054235;28;1260;-79
2022/01/18 08:45:32;;;;;;;;;;;;;;;;;;5072200;28;966;-79
2022/01/18 08:47:58;;;;;;;;;;;;;;;;;;5071243;28;1971;-79
2022/01/18 08:50:24;;;;;;;;;;;;;;;;;;5072251;28;848;-78
2022/01/18 08:52:52;;;;;;;;;;;;;;;;;;5054561;28;1253;-79
2022/01/18 08:55:18;;;;;;;;;;;;;;;;;;5070646;28;1183;-78
2022/01/18 08:57:43;;;;;;;;;;;;;;;;;;5070710;28;1332;-79
2022/01/18 09:00:10;;;;;;;;;;;;;;;;;;5070325;28;960;-77
2022/01/18 09:02:36;;;;;;;;;;;;;;;;;;5070030;28;1288;-78
2022/01/18 09:05:01;;;;;;;;;;;;;;;;;;5070726;28;1228;-78
2022/01/18 09:07:26;;;;;;;;;;;;;;;;;;5071658;28;868;-78
2022/01/18 09:10:01;;;;;;;;;;;;;;;;;;5054377;28;1967;-81
2022/01/18 09:12:27;;;;;;;;;;;;;;;;;;5070553;28;844;-82
2022/01/18 09:14:52;;;;;;;;;;;;;;;;;;5054053;28;1309;-80
2022/01/18 09:17:18;;;;;;;;;;;;;;;;;;5071743;28;880;-80
2022/01/18 09:19:43;;;;;;;;;;;;;;;;;;5070182;28;803;-81
2022/01/18 09:22:08;;;;;;;;;;;;;;;;;;5053458;28;1140;-80
2022/01/18 09:24:33;;;;;;;;;;;;;;;;;;5069995;28;1354;-81
2022/01/18 09:27:00;;;;;;;;;;;;;;;;;;5071854;28;828;-82
2022/01/18 09:29:25;;;;;;;;;;;;;;;;;;5070153;28;1910;-86
2022/01/18 09:31:50;;;;;;;;;;;;;;;;;;5070384;28;1066;-82
2022/01/18 09:34:16;;;;;;;;;;;;;;;;;;5070648;28;1352;-84
2022/01/18 09:36:42;;;;;;;;;;;;;;;;;;5053448;28;1407;-84
2022/01/18 09:39:07;;;;;;;;;;;;;;;;;;5071980;28;767;-81
2022/01/18 09:41:38;;;;;;;;;;;;;;;;;;5070263;28;1127;-83
2022/01/18 09:44:03;;;;;;;;;;;;;;;;;;5070563;28;1228;-83
2022/01/18 09:46:28;;;;;;;;;;;;;;;;;;5053461;28;1208;-80
2022/01/18 09:48:55;;;;;;;;;;;;;;;;;;5071840;28;1972;-79
2022/01/18 09:51:21;;;;;;;;;;;;;;;;;;5070044;28;1174;-79
2022/01/18 09:53:46;;;;;;;;;;;;;;;;;;5070185;28;1212;-79
2022/01/18 09:56:12;;;;;;;;;;;;;;;;;;5071943;28;891;-79
2022/01/18 09:58:37;;;;;;;;;;;;;;;;;;5070175;28;880;-79
2022/01/18 10:01:02;;;;;;;;;;;;;;;;;;5070840;28;1059;-79
2022/01/18 10:03:35;;;;;;;;;;;;;;;;;;5071265;28;813;-78
2022/01/18 10:06:02;;;;;;;;;;;;;;;;;;5070955;28;1154;-79
2022/01/18 10:08:27;;;;;;;;;;;;;;;;;;5069955;28;1908;-78
2022/01/18 10:10:57;;;;;;;;;;;;;;;;;;5070858;28;1317;-78
2022/01/18 10:13:24;;;;;;;;;;;;;;;;;;5071771;28;974;-78
2022/01/18 10:16:00;;;;;;;;;;;;;;;;;;5070589;28;1257;-78
2022/01/18 10:18:53;;;;;;;;;;;;;;;;;;5069032;28;1256;-79
2022/01/18 10:21:44;;;;;;;;;;;;;;;;;;5066680;28;1384;-78
2022/01/18 10:24:20;;;;;;;;;;;;;;;;;;5071375;28;935;-78
2022/01/18 10:26:46;;;;;;;;;;;;;;;;;;5070375;28;1248;-78
2022/01/18 10:29:12;;;;;;;;;;;;;;;;;;5071582;28;1964;-78
2022/01/18 10:31:46;;;;;;;;;;;;;;;;;;5069767;28;1076;-77
2022/01/18 10:34:21;;;;;;;;;;;;;;;;;;5069831;28;1169;-77
2022/01/18 10:36:54;;;;;;;;;;;;;;;;;;5069777;28;1222;-77
2022/01/18 10:39:23;;;;;;;;;;;;;;;;;;5069724;28;1182;-77
2022/01/18 10:41:49;;;;;;;;;;;;;;;;;;5052938;28;1309;-78
2022/01/18 10:44:15;;;;;;;;;;;;;;;;;;5069614;28;1286;-78
2022/01/18 10:46:42;;;;;;;;;;;;;;;;;;5070560;28;983;-77
2022/01/18 10:49:08;;;;;;;;;;;;;;;;;;5071226;28;1961;-78
2022/01/18 10:51:35;;;;;;;;;;;;;;;;;;5072558;28;1433;-77
2022/01/18 10:54:10;;;;;;;;;;;;;;;;;;5074565;28;967;-78
2022/01/18 10:56:42;;;;;;;;;;;;;;;;;;5072682;28;888;-78
2022/01/18 10:59:19;;;;;;;;;;;;;;;;;;5074744;28;840;-78
2022/01/18 11:01:44;;;;;;;;;;;;;;;;;;5073961;28;871;-78
2022/01/18 11:04:15;;;;;;;;;;;;;;;;;;5073023;28;991;-78
2022/01/18 11:06:43;;;;;;;;;;;;;;;;;;5072417;28;1155;-78
2022/01/18 11:09:10;;;;;;;;;;;;;;;;;;5072876;28;1977;-78
2022/01/18 11:11:45;;;;;;;;;;;;;;;;;;5072488;28;1175;-78
2022/01/18 11:14:12;;;;;;;;;;;;;;;;;;5074412;28;895;-77
2022/01/18 11:16:41;;;;;;;;;;;;;;;;;;5072374;28;770;-79
2022/01/18 11:19:30;;;;;;;;;;;;;;;;;;5056687;28;1224;-78
2022/01/18 11:21:57;;;;;;;;;;;;;;;;;;5072796;28;1305;-79
2022/01/18 11:24:22;;;;;;;;;;;;;;;;;;5072843;28;1174;-79
2022/01/18 11:26:48;;;;;;;;;;;;;;;;;;5073130;28;1184;-78
2022/01/18 11:29:16;;;;;;;;;;;;;;;;;;5072485;28;1906;-80
2022/01/18 11:31:44;;;;;;;;;;;;;;;;;;5072853;28;1252;-81
2022/01/18 11:34:12;;;;;;;;;;;;;;;;;;5075600;28;777;-81
2022/01/18 11:36:39;;;;;;;;;;;;;;;;;;5071932;28;1211;-81
2022/01/18 11:39:06;;;;;;;;;;;;;;;;;;5072181;28;1455;-80
2022/01/18 11:41:35;;;;;;;;;;;;;;;;;;5072079;28;1258;-80
2022/01/18 11:44:30;;;;;;;;;;;;;;;;;;5072038;28;1313;-81
2022/01/18 11:46:55;;;;;;;;;;;;;;;;;;5054961;28;1188;-81
2022/01/18 11:49:25;;;;;;;;;;;;;;;;;;5073788;28;1968;-80
2022/01/18 11:51:55;;;;;;;;;;;;;;;;;;5072349;28;1194;-81
2022/01/18 11:54:20;;;;;;;;;;;;;;;;;;5072268;28;1179;-80
2022/01/18 11:56:46;;;;;;;;;;;;;;;;;;5073580;28;797;-81
2022/01/18 11:59:12;;;;;;;;;;;;;;;;;;5055937;28;1171;-81
2022/01/18 12:01:53;;;;;;;;;;;;;;;;;;5071420;28;1404;-80
2022/01/18 12:04:38;;;;;;;;;;;;;;;;;;5071960;28;1148;-80
2022/01/18 12:07:03;;;;;;;;;;;;;;;;;;5073803;28;874;-81
2022/01/18 12:09:36;;;;;;;;;;;;;;;;;;5071822;28;1902;-80
2022/01/18 12:12:04;;;;;;;;;;;;;;;;;;5072060;28;1309;-80
2022/01/18 12:14:33;;;;;;;;;;;;;;;;;;5071329;28;1250;-80
2022/01/18 12:17:11;;;;;;;;;;;;;;;;;;5071738;28;1296;-80
2022/01/18 12:19:44;;;;;;;;;;;;;;;;;;5072352;28;825;-81
2022/01/18 12:22:10;;;;;;;;;;;;;;;;;;5071425;28;1281;-81
2022/01/18 12:24:36;;;;;;;;;;;;;;;;;;5070808;28;1266;-80
2022/01/18 12:27:21;;;;;;;;;;;;;;;;;;5072505;28;825;-80
2022/01/18 12:30:14;;;;;;;;;;;;;;;;;;5071463;28;1902;-80
2022/01/18 12:32:56;;;;;;;;;;;;;;;;;;5070440;28;1249;-80
2022/01/18 12:35:23;;;;;;;;;;;;;;;;;;5071494;28;877;-81
2022/01/18 12:37:49;;;;;;;;;;;;;;;;;;5054643;28;1115;-82
2022/01/18 12:40:34;;;;;;;;;;;;;;;;;;5072732;28;833;-82
2022/01/18 12:45:33;;;;;;;;;;;;;;;;;;5072067;28;678;-82
2022/01/18 12:48:02;;;;;;;;;;;;;;;;;;5072623;28;1894;-82
2022/01/18 12:50:32;;;;;;;;;;;;;;;;;;5071105;28;1348;-82
2022/01/18 12:53:02;;;;;;;;;;;;;;;;;;5070626;28;1192;-82
2022/01/18 12:55:46;;;;;;;;;;;;;;;;;;5070680;28;1170;-81
2022/01/18 12:58:13;;;;;;;;;;;;;;;;;;5070528;28;1273;-81
2022/01/18 13:00:58;;;;;;;;;;;;;;;;;;5071716;28;895;-82
2022/01/18 13:03:23;;;;;;;;;;;;;;;;;;5072170;28;892;-82
2022/01/18 13:05:50;;;;;;;;;;;;;;;;;;5070191;28;1275;-81
2022/01/18 13:08:17;;;;;;;;;;;;;;;;;;5070821;28;2022;-81
2022/01/18 13:10:49;;;;;;;;;;;;;;;;;;5071526;28;832;-81
2022/01/18 13:13:16;;;;;;;;;;;;;;;;;;5070007;28;1147;-81
2022/01/18 13:15:53;;;;;;;;;;;;;;;;;;5069719;28;1313;-79
2022/01/18 13:23:55;;;;;;;;;;;;;;;;;;5072140;28;859;-81
2022/01/18 13:26:28;;;;;;;;;;;;;;;;;;5070921;28;860;-80
2022/01/18 13:28:53;;;;;;;;;;;;;;;;;;5070009;28;1909;-81
2022/01/18 13:31:21;;;;;;;;;;;;;;;;;;5054702;28;1286;-81
2022/01/18 13:33:51;;;;;;;;;;;;;;;;;;5070629;28;1206;-81
2022/01/18 13:36:16;;;;;;;;;;;;;;;;;;5071091;28;867;-80
2022/01/18 13:38:41;;;;;;;;;;;;;;;;;;5070704;28;928;-79
2022/01/18 13:41:07;;;;;;;;;;;;;;;;;;5070916;28;1166;-80
2022/01/18 13:43:35;;;;;;;;;;;;;;;;;;5071791;28;1188;-81
2022/01/18 13:46:01;;;;;;;;;;;;;;;;;;5070908;28;806;-82
2022/01/18 13:48:33;;;;;;;;;;;;;;;;;;5070727;28;1914;-82
2022/01/18 13:51:07;;;;;;;;;;;;;;;;;;5070504;28;1269;-82
2022/01/18 13:53:34;;;;;;;;;;;;;;;;;;5070175;28;1222;-81
2022/01/18 13:55:59;;;;;;;;;;;;;;;;;;5070523;28;1065;-82
2022/01/18 13:58:26;;;;;;;;;;;;;;;;;;5072006;28;836;-82
2022/01/18 14:01:03;;;;;;;;;;;;;;;;;;5071474;28;975;-82
2022/01/18 14:03:29;;;;;;;;;;;;;;;;;;5070276;28;1163;-82
2022/01/18 14:05:54;;;;;;;;;;;;;;;;;;5070079;28;1265;-81
2022/01/18 14:08:20;;;;;;;;;;;;;;;;;;5070781;28;1902;-81
2022/01/18 14:10:45;;;;;;;;;;;;;;;;;;5071434;28;848;-82
2022/01/18 14:13:26;;;;;;;;;;;;;;;;;;5053560;28;1474;-81
2022/01/18 14:15:51;;;;;;;;;;;;;;;;;;5069906;28;1299;-81
2022/01/18 14:18:16;;;;;;;;;;;;;;;;;;5053462;28;1175;-80
2022/01/18 14:20:42;;;;;;;;;;;;;;;;;;5069808;28;876;-81
2022/01/18 14:23:20;;;;;;;;;;;;;;;;;;5070022;28;1060;-80
2022/01/18 14:25:46;;;;;;;;;;;;;;;;;;5056997;28;1173;-80
2022/01/18 14:28:14;;;;;;;;;;;;;;;;;;5073892;28;1906;-80
2022/01/18 14:30:42;;;;;;;;;;;;;;;;;;5075218;28;902;-81
2022/01/18 14:33:09;;;;;;;;;;;;;;;;;;5074082;28;939;-81
2022/01/18 14:35:37;;;;;;;;;;;;;;;;;;5074713;28;931;-81
2022/01/18 14:38:06;;;;;;;;;;;;;;;;;;5074788;28;794;-80
2022/01/18 14:40:36;;;;;;;;;;;;;;;;;;5073708;28;1833;-82
2022/01/18 14:43:10;;;;;;;;;;;;;;;;;;5081961;28;1879;-78
2022/01/18 14:45:42;;;;;;;;;;;;;;;;;;5081424;28;1772;-78
2022/01/18 14:48:13;;;;;;;;;;;;;;;;;;5072951;28;1952;-80
2022/01/18 14:50:45;;;;;;;;;;;;;;;;;;5073432;28;1770;-80
2022/01/18 14:53:10;;;;;;;;;;;;;;;;;;5073646;28;1701;-79
2022/01/18 14:55:36;;;;;;;;;;;;;;;;;;5072829;28;1727;-80
2022/01/18 14:58:02;;;;;;;;;;;;;;;;;;5074416;28;1714;-80
2022/01/18 15:00:27;;;;;;;;;;;;;;;;;;5074588;28;1847;-81
2022/01/18 15:02:54;;;;;;;;;;;;;;;;;;5074384;28;1722;-81
2022/01/18 15:05:19;;;;;;;;;;;;;;;;;;5053543;28;1782;-80
2022/01/18 15:07:45;;;;;;;;;;;;;;;;;;5076300;28;1727;-81
2022/01/18 15:10:11;;;;;;;;;;;;;;;;;;5065676;28;1887;-80
2022/01/18 15:12:37;;;;;;;;;;;;;;;;;;5077385;28;1266;-80
2022/01/18 15:15:03;;;;;;;;;;;;;;;;;;5074593;28;1786;-80
2022/01/18 15:17:28;;;;;;;;;;;;;;;;;;5073827;28;1702;-80
2022/01/18 15:19:54;;;;;;;;;;;;;;;;;;5072227;28;1833;-80
2022/01/18 15:22:19;;;;;;;;;;;;;;;;;;5056401;28;1737;-81
2022/01/18 15:24:45;;;;;;;;;;;;;;;;;;5053236;28;1736;-81
2022/01/18 15:27:10;;;;;;;;;;;;;;;;;;5066834;28;1758;-81
2022/01/18 15:29:41;;;;;;;;;;;;;;;;;;5053053;28;1909;-81
2022/01/18 15:32:07;;;;;;;;;;;;;;;;;;5065823;28;1687;-81
2022/01/18 15:34:32;;;;;;;;;;;;;;;;;;5072461;28;1908;-81
2022/01/18 15:36:57;;;;;;;;;;;;;;;;;;5056614;28;1862;-81
2022/01/18 15:39:28;;;;;;;;;;;;;;;;;;5073287;28;1767;-81
2022/01/18 15:45:03;;;;;;;;;;;;;;;;;;5033752;28;1764;-81
2022/01/18 15:47:53;;;;;;;;;;;;;;;;;;5051164;28;1795;-81
2022/01/18 15:53:59;;;;;;;;;;;;;;;;;;;;;
2022/01/18 15:56:26;;;;;;;;;;;;;;;;;;5046515;28;1556;-80
2022/01/18 16:11:29;;;;;;;;;;;;;;;;;;4955215;28;1640;-81
2022/01/18 17:03:55;;;;;;;;;;;;;;;;;;4972993;28;1304;-81
2022/01/18 17:06:33;;;;;;;;;;;;;;;;;;4954036;28;1751;-81
2022/01/18 17:59:52;;;;;;;;;;;;;;;;;;;;;
2022/01/18 19:05:43;;;;;;;;;;;;;;;;;;5044959;28;1090;-83
2022/01/18 19:08:08;;;;;;;;;;;;;;;;;;5076533;28;1961;-81
2022/01/18 19:10:38;;;;;;;;;;;;;;;;;;5073646;28;1235;-82
2022/01/18 19:13:20;;;;;;;;;;;;;;;;;;5074770;28;1167;-82
2022/01/18 19:15:46;;;;;;;;;;;;;;;;;;5074318;28;1199;-82
2022/01/18 19:18:13;;;;;;;;;;;;;;;;;;5074261;28;1116;-82
2022/01/18 19:20:39;;;;;;;;;;;;;;;;;;5070276;28;2416;-86
2022/01/18 19:23:05;;;;;;;;;;;;;;;;;;5054075;28;801;-85
2022/01/18 19:25:33;;;;;;;;;;;;;;;;;;5053497;28;1155;-84
2022/01/18 19:27:58;;;;;;;;;;;;;;;;;;5053950;28;1132;-87
2022/01/18 19:30:24;;;;;;;;;;;;;;;;;;5037459;28;1969;-84
2022/01/18 19:32:50;;;;;;;;;;;;;;;;;;5053889;28;1144;-86
2022/01/18 19:35:15;;;;;;;;;;;;;;;;;;5054751;28;801;-86
2022/01/18 19:37:43;;;;;;;;;;;;;;;;;;5053441;28;857;-86
2022/01/18 19:40:10;;;;;;;;;;;;;;;;;;5053162;28;1468;-88
2022/01/18 19:42:39;;;;;;;;;;;;;;;;;;5053034;28;2449;-88
2022/01/18 19:45:06;;;;;;;;;;;;;;;;;;5037018;28;1140;-88
2022/01/18 19:47:31;;;;;;;;;;;;;;;;;;5053562;28;1346;-84
2022/01/18 19:49:57;;;;;;;;;;;;;;;;;;5054477;28;1951;-84
2022/01/18 19:52:23;;;;;;;;;;;;;;;;;;5052443;28;806;-84
2022/01/18 19:54:49;;;;;;;;;;;;;;;;;;5036086;28;1294;-84
2022/01/18 19:57:14;;;;;;;;;;;;;;;;;;5053042;28;876;-83
2022/01/18 19:59:41;;;;;;;;;;;;;;;;;;5052077;28;860;-83
2022/01/18 20:02:06;;;;;;;;;;;;;;;;;;5036425;28;1179;-83
2022/01/18 20:04:33;;;;;;;;;;;;;;;;;;5052987;28;1135;-83
2022/01/18 20:06:58;;;;;;;;;;;;;;;;;;5052227;28;887;-82
2022/01/18 20:09:24;;;;;;;;;;;;;;;;;;5053551;28;1949;-84
2022/01/18 20:11:50;;;;;;;;;;;;;;;;;;5052623;28;1162;-81
2022/01/18 20:14:16;;;;;;;;;;;;;;;;;;5052501;28;845;-81
2022/01/18 20:16:41;;;;;;;;;;;;;;;;;;5053361;28;1225;-83
2022/01/18 20:19:06;;;;;;;;;;;;;;;;;;5052807;28;876;-78
2022/01/18 20:21:32;;;;;;;;;;;;;;;;;;5050760;28;1230;-82
2022/01/18 20:23:57;;;;;;;;;;;;;;;;;;5052569;28;1239;-87
2022/01/18 20:26:23;;;;;;;;;;;;;;;;;;5052434;28;1136;-85
2022/01/18 20:28:53;;;;;;;;;;;;;;;;;;5035348;28;1910;-80
2022/01/18 20:31:23;;;;;;;;;;;;;;;;;;5062838;28;1344;-86
2022/01/18 20:33:55;;;;;;;;;;;;;;;;;;5075705;28;1254;-86
2022/01/18 20:36:21;;;;;;;;;;;;;;;;;;5074659;28;1080;-83
2022/01/18 20:38:47;;;;;;;;;;;;;;;;;;5072029;28;1497;-84
2022/01/18 20:41:13;;;;;;;;;;;;;;;;;;5071859;28;1124;-87
2022/01/18 20:43:39;;;;;;;;;;;;;;;;;;5071791;28;1228;-85
2022/01/18 20:46:09;;;;;;;;;;;;;;;;;;5055453;28;1133;-82
2022/01/18 20:48:41;;;;;;;;;;;;;;;;;;5072441;28;1976;-83
2022/01/18 20:51:07;;;;;;;;;;;;;;;;;;5072169;28;790;-82
2022/01/18 20:53:32;;;;;;;;;;;;;;;;;;5071846;28;1337;-83
2022/01/18 20:55:57;;;;;;;;;;;;;;;;;;5054371;28;1088;-81
2022/01/18 20:58:42;;;;;;;;;;;;;;;;;;5073443;28;844;-81
2022/01/18 21:01:09;;;;;;;;;;;;;;;;;;5071370;28;1185;-81
2022/01/18 21:03:34;;;;;;;;;;;;;;;;;;5070855;28;1170;-73
2022/01/18 21:06:00;;;;;;;;;;;;;;;;;;5071724;28;888;-74
2022/01/18 21:08:25;;;;;;;;;;;;;;;;;;5071582;28;1973;-74
2022/01/18 21:10:50;;;;;;;;;;;;;;;;;;5070099;28;1167;-74
2022/01/18 21:13:20;;;;;;;;;;;;;;;;;;5054280;28;1313;-74
2022/01/18 21:15:45;;;;;;;;;;;;;;;;;;5071721;28;821;-74
2022/01/18 21:18:10;;;;;;;;;;;;;;;;;;5071523;28;1379;-73
2022/01/18 21:20:39;;;;;;;;;;;;;;;;;;5071048;28;1217;-74
2022/01/18 21:23:04;;;;;;;;;;;;;;;;;;5070679;28;1431;-73
2022/01/18 21:25:30;;;;;;;;;;;;;;;;;;5072508;28;931;-73
2022/01/18 21:27:56;;;;;;;;;;;;;;;;;;5054982;28;1152;-73
2022/01/18 21:30:23;;;;;;;;;;;;;;;;;;5072398;28;1914;-73
2022/01/18 21:32:50;;;;;;;;;;;;;;;;;;5053207;28;1237;-74
2022/01/18 21:35:16;;;;;;;;;;;;;;;;;;5072654;28;785;-73
2022/01/18 21:37:41;;;;;;;;;;;;;;;;;;5070880;28;1326;-73
2022/01/18 21:40:06;;;;;;;;;;;;;;;;;;5072400;28;868;-74